Portada
METAR-TAF:

METAR-TAF

Aeropuertos :

Aeropuerto de San Sebastián

San Sebastián, España

latitud: 43-21N, longitud: 001-48W, altitud: 5 m

Observación

El informe se hizo hace 26 minutos, a las 21:30 UTC
Viento calma
Temperatura 18°C
Humedad 68%
Presión 1013 hPa
Visibilidad 10 km o más
sin nubes por debajo de 1500 m y sin presencia de cumulonimbus.

METAR: LESO 162130Z AUTO 00000KT CAVOK 18/12 Q1013

Hora: 23:56 (21:56 UTC)

Pronóstico

El informe se hizo hace 4 horas y 56 minutos, a las 17:00 UTC
Pronóstico válido del 16 a las 18 UTC al 17 a las 18 UTC
Viento 8 kt del sur-suroeste
Visibilidad 10 km o más
Nubes dispersas a una altura de 5000 ft
Temporalmente
del 17 a las 02 UTC al 17 a las 08 UTC
lluvia
Evolucionando progresivamente
del 17 a las 11 UTC al 17 a las 15 UTC
Viento 10 kt del oeste-noroeste

TAF: LESO 161700Z 1618/1718 20008KT 9999 SCT050 TX21/1618Z TN14/1707Z TEMPO 1702/1708 RA BECMG 1711/1715 29010KT

Observaciones y pronósticos meteorológicos de más de 4000 aeropuertos (mensajes METAR y TAF).

Los puntos amarillos y rojos representan las estaciones disponibles.

Ponga el ratón en el punto deseado para ver el nombre de la estación.

Haga clic para ver las observaciones y los pronósticos meteorológicos.

Para cambiar el mapa : haga clic en los botones verdes con una cruz de color negro para hacer un zoom, en el botón verde con un guión para alejar o en las flechas verdes para mapas adyacentes.


METAR-TAF: